Latest Weather Observations for Moree

IDN60801

Issued at 6:32 pm EDT Sunday 15 December 2019 (issued every 10 minutes, with the page automatically refreshed every 10 minutes)

About weather observations | Map of weather stations | Latest weather observations for NSW | Other Formats
Station Details ID: 053115 Name: MOREE AERO Lat: -29.49 Lon: 149.85 Height: 213.0 m
Data from the previous 72 hours. | See also: Recent months at Moree
Date/Time
EDT
Temp
°C
App
Temp
°C
Dew
Point
°C
Rel
Hum
%
Delta-T
°C
Wind Press
QNH
hPa
Press
MSL
hPa
Rain since
9am
mm
Dir  Spd
km/h
Gust
km/h
Spd
kts
Gust
kts
15/06:30pm 36.2 28.7 -1.7 9 18.6 SW 28 33 15 18 1007.2 1005.9 0.0
15/06:00pm 37.0 29.2 -1.1 9 19.0 SW 30 35 16 19 1006.7 1005.5 0.0
15/05:30pm 36.6 28.7 -1.4 9 18.7 SW 30 37 16 20 1006.6 1005.4 0.0
15/05:00pm 37.1 30.0 -1.0 9 19.0 SW 26 33 14 18 1006.6 1005.4 0.0
15/04:30pm 37.8 31.9 -0.5 9 19.3 WSW 20 32 11 17 1006.7 1005.5 0.0
15/04:00pm 37.3 29.9 -0.9 9 19.1 SW 28 41 15 22 1007.1 1005.8 0.0
15/03:30pm 37.4 29.8 0.7 10 18.8 SSW 30 39 16 21 1007.1 1005.8 0.0
15/03:00pm 36.5 29.6 0.0 10 18.4 SW 26 39 14 21 1007.5 1006.2 0.0
15/02:30pm 37.3 30.8 0.6 10 18.7 SW 24 39 13 21 1007.6 1006.3 0.0
15/02:00pm 37.4 31.7 0.7 10 18.8 WSW 20 35 11 19 1008.0 1006.7 0.0
15/01:30pm 36.1 29.5 -0.3 10 18.2 WSW 24 39 13 21 1008.5 1007.2 0.0
15/01:00pm 35.9 30.0 -0.5 10 18.1 W 20 37 11 20 1008.9 1007.7 0.0
15/12:30pm 35.8 31.3 -0.5 10 18.0 WNW 13 22 7 12 1009.1 1007.9 0.0
15/12:00pm 35.4 30.6 0.5 11 17.6 SSW 15 28 8 15 1009.6 1008.4 0.0
15/11:30am 33.1 29.7 2.1 14 15.8 N 9 26 5 14 1010.0 1008.8 0.0
15/11:00am 32.9 30.1 2.9 15 15.5 NE 7 15 4 8 1010.3 1009.1 0.0
15/10:30am 32.5 29.7 5.1 18 14.6 N 9 15 5 8 1010.3 1009.1 0.0
15/10:00am 31.9 29.5 5.4 19 14.2 N 7 13 4 7 1010.5 1009.3 0.0
15/09:30am 31.3 28.4 4.9 19 13.9 E 9 15 5 8 1010.7 1009.5 0.0
15/09:00am 29.9 25.6 3.0 18 13.7 ENE 15 19 8 10 1010.7 1009.5 0.0
15/08:30am 28.5 25.7 1.9 18 13.1 ENE 6 9 3 5 1010.7 1009.5 0.0
15/08:00am 26.5 24.4 1.7 20 12.0 NE 2 7 1 4 1010.5 1009.3 0.0
15/07:30am 23.4 21.6 1.1 23 10.5 CALM 0 0 0 0 1010.3 1009.1 0.0
15/07:00am 21.5 19.7 1.2 26 9.4 CALM 0 0 0 0 1010.0 1008.8 0.0
15/06:30am 19.1 17.4 2.0 32 7.9 CALM 0 0 0 0 1009.7 1008.5 0.0
15/06:00am 18.8 15.5 0.4 29 8.2 SE 7 9 4 5 1009.4 1008.2 0.0
15/05:30am 19.1 15.9 0.7 29 8.3 SSW 7 9 4 5 1009.1 1007.9 0.0
15/05:00am 19.7 16.0 0.2 27 8.7 SSW 9 9 5 5 1008.9 1007.7 0.0
15/04:30am 20.2 16.5 0.1 26 9.0 SSW 9 11 5 6 1008.7 1007.4 0.0
15/04:00am 20.1 16.8 0.0 26 9.0 SW 7 9 4 5 1008.6 1007.3 0.0
15/03:30am 21.0 16.5 -0.3 24 9.5 SW 13 13 7 7 1008.6 1007.3 0.0
15/03:00am 21.4 17.3 0.0 24 9.7 SW 11 13 6 7 1008.6 1007.3 0.0
15/02:30am 21.7 17.6 -0.3 23 9.9 SW 11 13 6 7 1008.7 1007.4 0.0
15/02:00am 22.2 17.7 -0.5 22 10.3 SW 13 13 7 7 1008.8 1007.5 0.0
15/01:30am 22.9 18.0 -0.6 21 10.6 SW 15 17 8 9 1008.9 1007.7 0.0
15/01:00am 23.7 18.4 -0.6 20 11.1 SW 17 19 9 10 1008.9 1007.7 0.0
15/12:30am 24.2 19.6 -0.9 19 11.4 SW 13 15 7 8 1009.1 1007.9 0.0
15/12:00am 25.5 20.2 -0.5 18 12.0 WSW 17 17 9 9 1009.3 1008.1 0.0
 
Date/Time
EDT
Temp
°C
App
Temp
°C
Dew
Point
°C
Rel
Hum
%
Delta-T
°C
Wind Press
QNH
hPa
Press
MSL
hPa
Rain since
9am
mm
Dir  Spd
km/h
Gust
km/h
Spd
kts
Gust
kts
14/11:30pm 26.4 21.2 0.2 18 12.4 WSW 17 19 9 10 1009.3 1008.1 0.0
14/11:00pm 27.2 22.0 0.1 17 12.9 WSW 17 19 9 10 1009.3 1008.1 0.0
14/10:30pm 27.6 22.4 0.4 17 13.0 SW 17 20 9 11 1009.1 1007.9 0.0
14/10:00pm 29.1 23.4 0.7 16 13.8 WSW 20 24 11 13 1009.0 1007.8 0.0
14/09:30pm 29.4 23.3 0.1 15 14.1 WSW 22 26 12 14 1008.7 1007.4 0.0
14/09:00pm 30.2 24.0 -0.2 14 14.7 WSW 22 28 12 15 1008.4 1007.1 0.0
14/08:30pm 31.2 25.1 0.6 14 15.0 WSW 22 26 12 14 1008.1 1006.8 0.0
14/08:00pm 32.4 25.2 0.5 13 15.8 WSW 28 33 15 18 1007.9 1006.6 0.0
14/07:30pm 33.6 26.9 1.4 13 16.3 WSW 26 35 14 19 1007.5 1006.2 0.0
14/07:00pm 34.4 27.2 0.9 12 16.9 SW 28 37 15 20 1007.1 1005.8 0.0
14/06:30pm 35.1 28.4 1.5 12 17.2 SW 26 33 14 18 1006.7 1005.5 0.0
14/06:00pm 35.3 29.0 -0.9 10 17.9 SW 22 32 12 17 1006.5 1005.3 0.0
14/05:30pm 35.4 28.0 -0.8 10 17.9 SW 28 37 15 20 1006.6 1005.4 0.0
14/05:00pm 35.9 28.5 -0.5 10 18.2 SW 28 44 15 24 1006.7 1005.5 0.0
14/04:30pm 35.5 29.2 -0.8 10 17.9 SW 22 35 12 19 1007.1 1005.8 0.0
14/04:00pm 35.1 27.8 -2.5 9 18.1 SSW 26 43 14 23 1007.5 1006.2 0.0
14/03:30pm 35.0 26.6 -2.6 9 18.0 WSW 32 50 17 27 1007.8 1006.5 0.0
14/03:22pm 35.4 27.4 -2.3 9 18.2 SW 30 50 16 27 1007.7 1006.4 0.0
14/03:00pm 34.9 27.6 -2.6 9 18.0 SW 26 37 14 20 1008.0 1006.7 0.0
14/02:30pm 35.4 27.8 -2.3 9 18.2 SW 28 39 15 21 1008.4 1007.1 0.0
14/02:00pm 35.6 27.8 -0.7 10 18.0 SW 30 41 16 22 1008.7 1007.4 0.0
14/01:30pm 34.3 27.3 -0.4 11 17.1 SW 26 37 14 20 1009.2 1008.0 0.0
14/01:00pm 33.3 28.3 -1.1 11 16.7 WSW 15 30 8 16 1009.6 1008.4 0.0
14/12:30pm 33.0 26.8 -0.2 12 16.3 WSW 22 32 12 17 1010.0 1008.8 0.0
14/12:00pm 32.5 27.6 4.3 17 14.9 SW 19 35 10 19 1010.4 1009.2 0.0
14/11:30am 31.8 26.6 0.0 13 15.5 W 17 26 9 14 1010.6 1009.4 0.0
14/11:00am 30.1 28.2 10.6 30 11.2 SW 11 19 6 10 1010.8 1009.6 0.0
14/10:30am 29.1 28.0 12.1 35 10.0 WNW 9 15 5 8 1010.9 1009.7 0.0
14/10:00am 27.6 26.5 12.0 38 9.1 NW 9 15 5 8 1011.1 1009.9 0.0
14/09:30am 26.4 25.3 12.1 41 8.3 ESE 9 13 5 7 1011.4 1010.2 0.0
14/09:00am 25.9 25.6 12.7 44 7.7 ESE 6 9 3 5 1011.5 1010.3 0.0
14/08:30am 24.5 22.9 12.8 48 6.8 E 13 17 7 9 1011.4 1010.2 0.0
14/08:00am 24.2 23.0 12.8 49 6.6 E 11 17 6 9 1011.1 1009.9 0.0
14/07:30am 22.6 19.1 3.7 29 9.3 SSE 11 13 6 7 1010.9 1009.7 0.0
14/07:00am 19.9 15.1 -5.8 17 10.2 SSW 11 13 6 7 1010.6 1009.4 0.0
14/06:30am 17.9 13.0 -7.5 17 9.5 SSW 11 13 6 7 1010.5 1009.3 0.0
14/06:00am 17.7 12.8 -7.6 17 9.5 SSW 11 11 6 6 1010.1 1008.9 0.0
14/05:30am 17.9 13.0 -7.5 17 9.5 SSW 11 11 6 6 1010.0 1008.8 0.0
14/05:00am 18.4 13.4 -7.8 16 9.8 SSW 11 13 6 7 1009.9 1008.7 0.0
14/04:30am 18.9 13.9 -8.3 15 10.2 S 11 13 6 7 1009.7 1008.5 0.0
14/04:00am 19.2 13.8 -8.9 14 10.4 SSW 13 17 7 9 1009.7 1008.5 0.0
14/03:30am 20.0 13.3 -8.3 14 10.7 SW 20 26 11 14 1009.4 1008.2 0.0
14/03:00am 20.7 12.8 -8.7 13 11.1 WSW 26 30 14 16 1009.4 1008.2 0.0
14/02:30am 20.9 13.8 -8.5 13 11.2 WSW 22 28 12 15 1009.7 1008.5 0.0
14/02:00am 21.0 13.9 -8.4 13 11.2 WSW 22 26 12 14 1009.8 1008.6 0.0
14/01:30am 21.3 14.6 -8.2 13 11.3 WSW 20 26 11 14 1010.1 1008.9 0.0
14/01:00am 21.5 15.4 -8.0 13 11.4 WSW 17 20 9 11 1010.5 1009.3 0.0
14/12:30am 22.3 15.8 -8.4 12 11.9 WSW 19 20 10 11 1010.6 1009.4 0.0
14/12:00am 22.9 16.4 -8.0 12 12.1 WSW 19 22 10 12 1010.6 1009.4 0.0
 
Date/Time
EDT
Temp
°C
App
Temp
°C
Dew
Point
°C
Rel
Hum
%
Delta-T
°C
Wind Press
QNH
hPa
Press
MSL
hPa
Rain since
9am
mm
Dir  Spd
km/h
Gust
km/h
Spd
kts
Gust
kts
13/11:30pm 23.4 17.7 -7.6 12 12.3 WSW 15 17 8 9 1010.7 1009.5 0.0
13/11:00pm 24.4 17.9 -7.9 11 12.9 SW 19 24 10 13 1010.6 1009.4 0.0
13/10:30pm 25.0 18.7 -6.3 12 12.9 WSW 19 22 10 12 1010.3 1009.1 0.0
13/10:00pm 25.9 19.4 -5.6 12 13.3 WSW 20 26 11 14 1010.0 1008.8 0.0
13/09:30pm 26.1 20.3 -4.4 13 13.2 WSW 17 19 9 10 1009.7 1008.5 0.0
13/09:00pm 26.9 20.8 -3.8 13 13.5 W 19 22 10 12 1009.5 1008.3 0.0
13/08:30pm 28.5 22.2 -3.6 12 14.4 WSW 20 24 11 13 1009.3 1008.1 0.0
13/08:00pm 30.2 23.2 -3.5 11 15.4 WSW 24 28 13 15 1009.0 1007.8 0.0
13/07:30pm 31.7 24.1 -2.3 11 16.0 WSW 28 35 15 19 1008.7 1007.4 0.0
13/07:00pm 32.8 24.0 -4.2 9 17.0 WSW 33 43 18 23 1008.2 1006.9 0.0
13/06:30pm 33.8 24.5 -5.0 8 17.7 WSW 35 48 19 26 1007.7 1006.4 0.0
13/06:00pm 34.5 25.7 -4.5 8 18.1 WSW 33 43 18 23 1007.4 1006.1 0.0
13/05:30pm 35.0 26.2 -4.1 8 18.2 WSW 33 44 18 24 1007.1 1005.8 0.0
13/05:00pm 35.3 27.5 -3.9 8 18.4 W 28 48 15 26 1007.1 1005.8 0.0
13/04:59pm 35.4 27.8 -2.3 9 18.2 W 28 48 15 26 1007.1 1005.8 0.0
13/04:30pm 35.0 28.3 -4.1 8 18.2 WSW 22 35 12 19 1007.5 1006.2 0.0
13/04:00pm 35.5 28.5 1.8 12 17.4 SW 28 46 15 25 1007.8 1006.5 0.0
13/03:30pm 34.6 28.6 3.2 14 16.4 WSW 24 43 13 23 1008.1 1006.8 0.0
13/03:00pm 34.6 28.2 3.2 14 16.5 W 26 39 14 21 1008.4 1007.1 0.0
13/02:30pm 34.7 29.5 3.3 14 16.5 SW 20 39 11 21 1008.7 1007.4 0.0
13/02:00pm 33.7 27.7 6.9 19 14.8 WSW 28 39 15 21 1008.9 1007.7 0.0
13/01:30pm 34.7 31.9 11.2 24 13.9 W 17 26 9 14 1009.1 1007.9 0.0
13/01:00pm 32.8 30.2 11.9 28 12.5 WSW 17 28 9 15 1009.5 1008.3 0.0
13/12:30pm 32.1 29.9 13.3 31 11.4 WSW 17 35 9 19 1010.0 1008.8 0.0
13/12:00pm 31.4 30.1 13.6 33 10.8 SSW 13 24 7 13 1010.3 1009.1 0.0
13/11:30am 31.1 31.4 15.1 38 9.9 ENE 7 13 4 7 1010.6 1009.4 0.0
13/11:00am 30.3 30.4 15.6 41 9.2 SE 9 15 5 8 1010.7 1009.5 0.0
13/10:30am 30.0 30.3 16.1 43 8.7 E 9 17 5 9 1010.8 1009.6 0.0
13/10:00am 28.6 29.2 16.8 48 7.4 NE 9 13 5 7 1010.7 1009.5 0.0
13/09:30am 28.1 28.4 17.0 51 7.0 SE 11 19 6 10 1010.9 1009.7 0.0
13/09:00am 27.7 28.3 16.9 51 6.8 ENE 9 13 5 7 1011.0 1009.8 0.0
13/08:30am 27.5 27.6 16.5 51 6.9 ENE 11 19 6 10 1011.0 1009.8 0.0
13/08:00am 26.8 26.1 14.2 46 7.6 ESE 11 17 6 9 1011.0 1009.8 0.0
13/07:30am 25.5 22.9 9.3 36 8.9 SSE 13 15 7 8 1010.5 1009.3 0.0
13/07:00am 23.8 21.0 8.6 38 8.2 SSE 13 15 7 8 1010.2 1009.0 0.0
13/06:30am 22.7 18.9 7.7 38 7.9 S 17 19 9 10 1010.1 1008.9 0.0
13/06:00am 22.6 18.0 5.5 33 8.7 S 19 24 10 13 1009.8 1008.6 0.0
13/05:30am 22.6 17.5 1.0 24 10.0 S 17 20 9 11 1009.6 1008.4 0.0
13/05:00am 23.0 17.5 -1.8 19 11.0 SSW 17 20 9 11 1009.3 1008.1 0.0
13/04:30am 23.7 18.1 -2.8 17 11.6 SSW 17 20 9 11 1009.3 1008.1 0.0
13/04:00am 23.6 18.1 -2.1 18 11.4 SSW 17 20 9 11 1009.4 1008.2 0.0
13/03:30am 23.7 18.2 -2.0 18 11.4 SSW 17 19 9 10 1009.5 1008.3 0.0
13/03:00am 23.5 17.4 -2.2 18 11.4 SW 20 24 11 13 1009.6 1008.4 0.0
13/02:30am 23.2 17.9 -3.2 17 11.4 SW 15 17 8 9 1009.8 1008.6 0.0
13/02:00am 23.9 18.2 -3.4 16 11.8 SW 17 19 9 10 1009.9 1008.7 0.0
13/01:30am 24.9 18.8 -2.6 16 12.2 SW 20 26 11 14 1010.2 1009.0 0.0
13/01:00am 25.3 19.1 -3.2 15 12.5 SW 20 26 11 14 1010.4 1009.2 0.0
13/12:30am 25.4 19.2 -3.1 15 12.6 SW 20 22 11 12 1010.5 1009.3 0.0
13/12:00am 25.8 19.5 -3.7 14 12.9 SW 20 24 11 13 1010.7 1009.5 0.0
 
Date/Time
EDT
Temp
°C
App
Temp
°C
Dew
Point
°C
Rel
Hum
%
Delta-T
°C
Wind Press
QNH
hPa
Press
MSL
hPa
Rain since
9am
mm
Dir  Spd
km/h
Gust
km/h
Spd
kts
Gust
kts
12/11:30pm 26.4 20.3 -4.2 13 13.3 WSW 19 22 10 12 1010.6 1009.4 0.0
12/11:00pm 26.8 20.7 -3.9 13 13.5 SW 19 22 10 12 1010.4 1009.2 0.0
12/10:30pm 27.5 21.3 -4.4 12 14.0 SW 19 20 10 11 1010.0 1008.8 0.0
12/10:00pm 28.6 22.3 -3.6 12 14.5 SW 20 26 11 14 1009.8 1008.6 0.0
12/09:30pm 30.0 22.6 -3.6 11 15.2 SW 26 30 14 16 1009.6 1008.4 0.0
12/09:00pm 31.2 23.4 -4.0 10 16.0 WSW 28 35 15 19 1009.2 1008.0 0.0
12/08:30pm 32.2 24.5 -3.2 10 16.4 WSW 28 32 15 17 1008.7 1007.4 0.0
12/08:00pm 33.1 25.3 -4.0 9 17.1 WSW 28 35 15 19 1008.0 1006.7 0.0
12/07:30pm 34.7 25.7 -2.8 9 17.8 WSW 35 46 19 25 1007.5 1006.2 0.0
12/07:00pm 35.5 26.0 -3.8 8 18.5 SW 37 50 20 27 1006.9 1005.7 0.0

Other formats

Comma delimited format used in spreadsheet applications
http://www.bom.gov.au/fwo/IDN60801/IDN60801.95527.axf

JavaScript Object Notation format (JSON) in row-major order
http://www.bom.gov.au/fwo/IDN60801/IDN60801.95527.json

Data quality

Most of these data are generated automatically and are frequently updated. Quality checks on data are not normally performed. It is possible for incorrect values to appear. Refer to information at About Latest Weather Observations and please check the disclaimer before using these data.